createdAt,value
2023-02-19T00:01:12.597Z,5.22
2023-02-19T00:03:39.551Z,4.60
2023-02-19T00:06:08.036Z,5.10
2023-02-19T00:08:35.495Z,4.95
2023-02-19T00:11:08.710Z,4.03
2023-02-19T00:13:37.455Z,4.40
2023-02-19T00:16:08.801Z,4.97
2023-02-19T00:18:35.711Z,5.35
2023-02-19T00:21:02.544Z,4.80
2023-02-19T00:23:29.272Z,3.55
2023-02-19T00:26:00.988Z,4.57
2023-02-19T00:28:29.752Z,4.20
2023-02-19T00:30:56.269Z,4.82
2023-02-19T00:33:22.668Z,4.05
2023-02-19T00:35:49.006Z,3.67
2023-02-19T00:38:15.433Z,4.00
2023-02-19T00:40:41.785Z,3.33
2023-02-19T00:43:08.136Z,3.80
2023-02-19T00:45:35.631Z,3.63
2023-02-19T00:48:02.003Z,3.92
2023-02-19T00:50:28.336Z,3.10
2023-02-19T00:52:54.734Z,3.33
2023-02-19T00:55:21.064Z,3.70
2023-02-19T00:57:47.433Z,3.92
2023-02-19T01:00:13.958Z,4.05
2023-02-19T01:02:40.311Z,3.70
2023-02-19T01:05:06.782Z,3.90
2023-02-19T01:07:36.050Z,2.92
2023-02-19T01:10:02.632Z,3.25
2023-02-19T01:12:29.139Z,3.83
2023-02-19T01:14:55.522Z,2.80
2023-02-19T01:17:21.887Z,2.80
2023-02-19T01:19:48.275Z,2.45
2023-02-19T01:22:14.780Z,2.58
2023-02-19T01:24:41.229Z,3.25
2023-02-19T01:27:07.662Z,3.08
2023-02-19T01:29:34.021Z,3.33
2023-02-19T01:32:00.487Z,2.72
2023-02-19T01:34:30.064Z,2.60
2023-02-19T01:36:56.409Z,3.00
2023-02-19T01:39:22.810Z,2.75
2023-02-19T01:41:49.155Z,2.30
2023-02-19T01:44:15.430Z,2.30
2023-02-19T01:46:43.300Z,2.47
2023-02-19T01:49:20.513Z,2.38
2023-02-19T01:51:57.736Z,2.50
2023-02-19T01:54:28.337Z,2.20
2023-02-19T01:56:55.882Z,2.35
2023-02-19T01:59:22.406Z,4.25
2023-02-19T02:01:49.509Z,2.50
2023-02-19T02:04:17.394Z,2.50
2023-02-19T02:06:49.693Z,2.70
2023-02-19T02:09:35.789Z,2.72
2023-02-19T02:12:02.120Z,2.53
2023-02-19T02:14:33.488Z,1.98
2023-02-19T02:17:05.587Z,2.40
2023-02-19T02:19:55.193Z,2.80
2023-02-19T02:22:32.556Z,2.35
2023-02-19T02:25:04.823Z,2.03
2023-02-19T02:27:42.833Z,1.83
2023-02-19T02:30:37.120Z,2.55
2023-02-19T02:33:31.860Z,2.00
2023-02-19T02:36:03.385Z,3.38
2023-02-19T02:38:33.212Z,2.30
2023-02-19T02:41:00.218Z,1.98
2023-02-19T02:43:26.649Z,2.33
2023-02-19T02:45:53.406Z,2.67
2023-02-19T02:48:35.149Z,1.92
2023-02-19T02:51:28.605Z,2.10
2023-02-19T02:54:38.694Z,2.33
2023-02-19T02:57:09.213Z,2.45
2023-02-19T02:59:39.414Z,3.63
2023-02-19T03:02:18.558Z,2.47
2023-02-19T03:05:26.801Z,2.20
2023-02-19T03:07:59.438Z,2.38
2023-02-19T03:10:36.383Z,3.15
2023-02-19T03:13:25.909Z,2.77
2023-02-19T03:16:21.317Z,3.38
2023-02-19T03:19:10.585Z,3.30
2023-02-19T03:21:39.783Z,3.25
2023-02-19T03:24:28.273Z,3.75
2023-02-19T03:26:56.598Z,2.87
2023-02-19T03:29:26.327Z,3.25
2023-02-19T03:31:57.438Z,4.00
2023-02-19T03:34:29.427Z,3.40
2023-02-19T03:37:04.061Z,3.83
2023-02-19T03:39:30.607Z,3.50
2023-02-19T03:42:19.347Z,2.90
2023-02-19T03:44:57.166Z,2.90
2023-02-19T03:47:28.839Z,3.35
2023-02-19T03:50:24.313Z,3.20
2023-02-19T03:53:06.444Z,3.83
2023-02-19T03:55:43.757Z,2.70
2023-02-19T03:58:23.296Z,2.60
2023-02-19T04:01:03.130Z,2.72
2023-02-19T04:03:46.964Z,2.55
2023-02-19T04:06:18.325Z,2.10
2023-02-19T04:08:48.674Z,2.40
2023-02-19T04:11:17.073Z,2.15
2023-02-19T04:13:48.382Z,2.08
2023-02-19T04:16:24.409Z,1.70
2023-02-19T04:18:55.229Z,1.87
2023-02-19T04:21:23.573Z,2.67
2023-02-19T04:23:50.283Z,2.55
2023-02-19T04:26:18.052Z,2.17
2023-02-19T04:28:44.522Z,1.40
2023-02-19T04:31:11.652Z,1.70
2023-02-19T04:33:38.366Z,1.55
2023-02-19T04:36:05.149Z,1.38
2023-02-19T04:38:31.516Z,3.67
2023-02-19T04:40:57.901Z,1.63
2023-02-19T04:43:24.280Z,2.37
2023-02-19T04:45:50.663Z,0.93
2023-02-19T04:48:17.021Z,1.88
2023-02-19T04:50:43.374Z,1.02
2023-02-19T04:53:09.742Z,0.77
2023-02-19T04:55:38.358Z,1.67
2023-02-19T04:58:04.918Z,0.75
2023-02-19T05:00:31.735Z,0.88
2023-02-19T05:02:58.090Z,1.15
2023-02-19T05:05:24.452Z,1.25
2023-02-19T05:07:50.841Z,1.87
2023-02-19T05:10:17.350Z,1.17
2023-02-19T05:12:43.710Z,2.05
2023-02-19T05:15:10.065Z,1.38
2023-02-19T05:17:36.509Z,2.25
2023-02-19T05:20:02.872Z,2.37
2023-02-19T05:22:30.061Z,1.60
2023-02-19T05:24:56.560Z,1.17
2023-02-19T05:27:22.930Z,1.75
2023-02-19T05:29:49.275Z,1.70
2023-02-19T05:32:15.692Z,1.73
2023-02-19T05:34:42.064Z,2.67
2023-02-19T05:37:08.408Z,2.17
2023-02-19T05:39:34.829Z,2.22
2023-02-19T05:42:01.183Z,1.83
2023-02-19T05:44:27.641Z,4.10
2023-02-19T05:46:54.003Z,2.75
2023-02-19T05:49:20.352Z,1.52
2023-02-19T05:51:49.851Z,1.90
2023-02-19T05:54:16.179Z,3.80
2023-02-19T05:56:42.611Z,4.37
2023-02-19T05:59:20.912Z,3.45
2023-02-19T06:01:48.582Z,2.58
2023-02-19T06:04:15.774Z,3.67
2023-02-19T06:06:42.264Z,4.95
2023-02-19T06:09:09.302Z,3.17
2023-02-19T06:11:36.149Z,4.05
2023-02-19T06:14:02.634Z,4.03
2023-02-19T06:16:29.311Z,2.70
2023-02-19T06:18:55.725Z,5.32
2023-02-19T06:21:22.151Z,2.93
2023-02-19T06:23:48.501Z,3.13
2023-02-19T06:26:20.488Z,3.15
2023-02-19T06:28:49.138Z,4.85
2023-02-19T06:31:16.116Z,3.47
2023-02-19T06:33:43.105Z,2.30
2023-02-19T06:36:15.258Z,2.58
2023-02-19T06:38:42.132Z,4.85
2023-02-19T06:41:10.099Z,3.38
2023-02-19T06:43:36.673Z,2.75
2023-02-19T06:46:05.138Z,6.27
2023-02-19T06:48:32.833Z,3.45
2023-02-19T06:50:59.503Z,2.05
2023-02-19T06:53:25.898Z,2.92
2023-02-19T06:56:03.003Z,6.38
2023-02-19T06:58:29.734Z,4.50
2023-02-19T07:00:56.471Z,3.63
2023-02-19T07:03:23.045Z,2.72
2023-02-19T07:05:49.787Z,2.70
2023-02-19T07:08:17.315Z,3.25
2023-02-19T07:10:45.459Z,3.20
2023-02-19T07:13:12.011Z,4.43
2023-02-19T07:15:38.629Z,3.78
2023-02-19T07:18:07.078Z,3.90
2023-02-19T07:20:33.436Z,6.10
2023-02-19T07:22:59.791Z,5.13
2023-02-19T07:25:26.156Z,2.55
2023-02-19T07:27:52.510Z,5.18
2023-02-19T07:30:19.041Z,3.15
2023-02-19T07:32:45.554Z,5.75
2023-02-19T07:35:12.029Z,6.13
2023-02-19T07:37:38.445Z,4.50
2023-02-19T07:40:05.310Z,5.25
2023-02-19T07:42:31.686Z,4.35
2023-02-19T07:45:00.568Z,2.65
2023-02-19T07:47:27.081Z,4.10
2023-02-19T07:49:53.437Z,3.00
2023-02-19T07:52:19.781Z,4.25
2023-02-19T07:54:46.130Z,3.13
2023-02-19T07:57:12.504Z,3.72
2023-02-19T07:59:38.860Z,3.60
2023-02-19T08:02:28.553Z,5.82
2023-02-19T08:04:54.885Z,2.90
2023-02-19T08:07:21.228Z,4.32
2023-02-19T08:10:07.543Z,3.33
2023-02-19T08:12:52.367Z,6.23
2023-02-19T08:15:19.782Z,3.47
2023-02-19T08:17:47.311Z,4.40
2023-02-19T08:20:13.778Z,4.35
2023-02-19T08:22:40.138Z,3.60
2023-02-19T08:25:06.812Z,4.13
2023-02-19T08:27:33.180Z,6.10
2023-02-19T08:29:59.549Z,3.40
2023-02-19T08:32:25.926Z,4.70
2023-02-19T08:34:52.278Z,5.05
2023-02-19T08:37:18.628Z,4.43
2023-02-19T08:39:44.973Z,4.30
2023-02-19T08:42:11.318Z,5.68
2023-02-19T08:44:37.665Z,4.32
2023-02-19T08:47:04.898Z,5.90
2023-02-19T08:49:31.248Z,5.07
2023-02-19T08:51:57.583Z,4.28
2023-02-19T08:54:23.937Z,4.57
2023-02-19T08:56:50.285Z,7.20
2023-02-19T08:59:16.982Z,4.43
2023-02-19T09:01:43.358Z,6.43
2023-02-19T09:04:12.998Z,4.72
2023-02-19T09:06:40.139Z,4.50
2023-02-19T09:09:06.651Z,7.15
2023-02-19T09:11:32.998Z,6.22
2023-02-19T09:13:59.347Z,9.40
2023-02-19T09:16:25.859Z,5.15
2023-02-19T09:18:52.218Z,7.38
2023-02-19T09:21:18.553Z,5.78
2023-02-19T09:23:44.906Z,5.88
2023-02-19T09:26:11.424Z,5.27
2023-02-19T09:28:41.428Z,6.88
2023-02-19T09:31:11.409Z,4.20
2023-02-19T09:33:38.514Z,4.72
2023-02-19T09:36:05.170Z,10.18
2023-02-19T09:38:31.602Z,7.73
2023-02-19T09:40:59.067Z,6.38
2023-02-19T09:43:28.792Z,6.43
2023-02-19T09:46:03.381Z,5.10
2023-02-19T09:48:30.560Z,4.68
2023-02-19T09:50:58.497Z,5.63
2023-02-19T09:53:29.688Z,6.07
2023-02-19T09:55:56.639Z,7.07
2023-02-19T09:58:30.753Z,8.43
2023-02-19T10:01:00.878Z,5.47
2023-02-19T10:03:39.110Z,4.57
2023-02-19T10:06:14.080Z,5.35
2023-02-19T10:08:41.988Z,6.53
2023-02-19T10:11:13.148Z,9.23
2023-02-19T10:13:45.547Z,5.45
2023-02-19T10:16:17.518Z,6.17
2023-02-19T10:18:45.681Z,5.53
2023-02-19T10:21:22.406Z,6.13
2023-02-19T10:23:53.786Z,5.53
2023-02-19T10:26:20.308Z,5.45
2023-02-19T10:28:46.672Z,6.37
2023-02-19T10:31:20.695Z,6.15
2023-02-19T10:33:52.500Z,5.03
2023-02-19T10:36:26.659Z,4.93
2023-02-19T10:38:54.355Z,5.53
2023-02-19T10:41:24.833Z,7.13
2023-02-19T10:44:11.394Z,4.95
2023-02-19T10:46:44.018Z,6.72
2023-02-19T10:49:28.051Z,8.63
2023-02-19T10:51:57.760Z,5.22
2023-02-19T10:54:35.340Z,5.47
2023-02-19T10:57:19.672Z,4.97
2023-02-19T10:59:59.068Z,5.93
2023-02-19T11:02:26.231Z,6.53
2023-02-19T11:05:17.031Z,4.22
2023-02-19T11:07:55.842Z,6.73
2023-02-19T11:10:30.136Z,5.60
2023-02-19T11:13:00.594Z,4.53
2023-02-19T11:15:29.965Z,6.20
2023-02-19T11:17:59.958Z,7.57
2023-02-19T11:20:28.443Z,6.30
2023-02-19T11:23:01.496Z,6.45
2023-02-19T11:25:28.240Z,5.07
2023-02-19T11:28:07.162Z,5.72
2023-02-19T11:30:36.563Z,7.20
2023-02-19T11:33:24.371Z,6.60
2023-02-19T11:35:55.391Z,7.78
2023-02-19T11:38:21.824Z,5.43
2023-02-19T11:41:09.502Z,8.32
2023-02-19T11:43:53.416Z,8.00
2023-02-19T11:46:19.709Z,6.33
2023-02-19T11:48:54.929Z,4.32
2023-02-19T11:51:34.408Z,7.85
2023-02-19T11:54:07.111Z,6.95
2023-02-19T11:56:37.120Z,5.07
2023-02-19T11:59:05.202Z,7.87
2023-02-19T12:01:50.300Z,7.07
2023-02-19T12:04:56.547Z,9.77
2023-02-19T12:07:50.800Z,5.43
2023-02-19T12:10:35.995Z,5.90
2023-02-19T12:13:30.210Z,5.27
2023-02-19T12:16:14.879Z,6.38
2023-02-19T12:18:46.915Z,7.47
2023-02-19T12:21:25.667Z,7.65
2023-02-19T12:24:23.967Z,5.60
2023-02-19T12:27:33.633Z,7.03
2023-02-19T12:30:15.069Z,4.75
2023-02-19T12:32:57.058Z,5.80
2023-02-19T12:35:37.958Z,7.82
2023-02-19T12:38:27.560Z,6.35
2023-02-19T12:41:17.800Z,3.70
2023-02-19T12:43:56.593Z,5.82
2023-02-19T12:46:31.737Z,5.55
2023-02-19T12:49:14.084Z,3.63
2023-02-19T12:51:48.694Z,4.38
2023-02-19T12:54:23.827Z,3.63
2023-02-19T12:57:18.303Z,4.43
2023-02-19T13:00:07.391Z,4.40
2023-02-19T13:02:48.343Z,4.55
2023-02-19T13:05:52.384Z,3.97
2023-02-19T13:08:21.698Z,3.30
2023-02-19T13:10:56.392Z,4.55
2023-02-19T13:13:30.637Z,3.63
2023-02-19T13:16:05.836Z,3.70
2023-02-19T13:18:40.928Z,3.38
2023-02-19T13:21:08.755Z,3.77
2023-02-19T13:23:58.151Z,5.97
2023-02-19T13:26:54.315Z,4.22
2023-02-19T13:29:35.649Z,6.10
2023-02-19T13:32:21.081Z,5.07
2023-02-19T13:35:27.561Z,3.10
2023-02-19T13:37:55.825Z,4.75
2023-02-19T13:40:33.145Z,3.58
2023-02-19T13:43:05.756Z,6.50
2023-02-19T13:45:44.627Z,4.47
2023-02-19T13:48:32.550Z,3.13
2023-02-19T13:51:23.498Z,3.35
2023-02-19T13:53:58.481Z,3.15
2023-02-19T13:56:34.074Z,2.22
2023-02-19T13:59:36.247Z,2.63
2023-02-19T14:02:02.601Z,3.77
2023-02-19T14:04:31.649Z,2.92
2023-02-19T14:07:04.134Z,2.80
2023-02-19T14:09:36.844Z,2.85
2023-02-19T14:12:06.175Z,3.40
2023-02-19T14:14:37.609Z,3.33
2023-02-19T14:17:09.808Z,5.25
2023-02-19T14:19:42.336Z,2.90
2023-02-19T14:22:45.818Z,2.85
2023-02-19T14:25:26.868Z,2.20
2023-02-19T14:27:57.419Z,4.03
2023-02-19T14:30:24.447Z,2.97
2023-02-19T14:33:02.746Z,3.38
2023-02-19T14:35:40.425Z,2.35
2023-02-19T14:38:14.227Z,3.10
2023-02-19T14:40:42.070Z,3.00
2023-02-19T14:43:14.390Z,5.18
2023-02-19T14:45:44.994Z,2.70
2023-02-19T14:48:19.523Z,2.83
2023-02-19T14:50:50.502Z,3.13
2023-02-19T14:53:19.063Z,5.73
2023-02-19T14:55:46.441Z,3.45
2023-02-19T14:58:22.083Z,3.72
2023-02-19T15:00:48.553Z,3.95
2023-02-19T15:03:33.815Z,5.20
2023-02-19T15:06:14.387Z,3.63
2023-02-19T15:08:45.380Z,4.60
2023-02-19T15:11:19.069Z,3.25
2023-02-19T15:13:50.844Z,4.15
2023-02-19T15:16:24.685Z,3.72
2023-02-19T15:18:53.345Z,3.77
2023-02-19T15:21:29.164Z,4.90
2023-02-19T15:24:01.422Z,3.33
2023-02-19T15:26:42.923Z,4.45
2023-02-19T15:29:21.003Z,5.00
2023-02-19T15:31:56.236Z,3.17
2023-02-19T15:34:31.658Z,3.47
2023-02-19T15:37:07.487Z,3.33
2023-02-19T15:39:44.682Z,4.25
2023-02-19T15:42:18.416Z,4.20
2023-02-19T15:45:00.744Z,4.30
2023-02-19T15:47:57.620Z,4.78
2023-02-19T15:50:29.969Z,3.95
2023-02-19T15:53:03.626Z,3.72
2023-02-19T15:55:33.589Z,3.17
2023-02-19T15:58:08.472Z,3.50
2023-02-19T16:00:38.324Z,2.97
2023-02-19T16:03:05.553Z,4.35
2023-02-19T16:05:39.142Z,3.15
2023-02-19T16:08:12.464Z,4.05
2023-02-19T16:10:39.431Z,2.90
2023-02-19T16:13:09.389Z,3.65
2023-02-19T16:15:36.096Z,4.53
2023-02-19T16:18:02.557Z,3.28
2023-02-19T16:20:34.710Z,3.72
2023-02-19T16:23:15.227Z,4.10
2023-02-19T16:25:44.408Z,4.32
2023-02-19T16:28:17.977Z,2.60
2023-02-19T16:30:44.470Z,2.53
2023-02-19T16:33:36.406Z,3.42
2023-02-19T16:36:28.764Z,2.77
2023-02-19T16:39:07.095Z,3.80
2023-02-19T16:41:34.463Z,2.75
2023-02-19T16:44:06.526Z,3.05
2023-02-19T16:46:33.171Z,3.83
2023-02-19T16:48:59.605Z,3.40
2023-02-19T16:51:27.754Z,5.50
2023-02-19T16:53:54.193Z,2.80
2023-02-19T16:56:22.960Z,5.13
2023-02-19T16:58:50.166Z,3.55
2023-02-19T17:01:17.347Z,4.07
2023-02-19T17:03:46.917Z,2.90
2023-02-19T17:06:13.600Z,2.70
2023-02-19T17:08:44.406Z,4.18
2023-02-19T17:11:13.796Z,2.40
2023-02-19T17:13:41.630Z,3.40
2023-02-19T17:16:13.371Z,4.82
2023-02-19T17:18:39.728Z,5.90
2023-02-19T17:21:15.315Z,4.90
2023-02-19T17:23:41.784Z,5.55
2023-02-19T17:26:14.332Z,3.93
2023-02-19T17:28:41.545Z,4.70
2023-02-19T17:31:10.309Z,5.85
2023-02-19T17:33:37.896Z,3.38
2023-02-19T17:36:04.693Z,3.55
2023-02-19T17:38:31.032Z,2.73
2023-02-19T17:40:57.447Z,3.15
2023-02-19T17:43:25.516Z,4.47
2023-02-19T17:45:52.010Z,4.05
2023-02-19T17:48:18.369Z,2.80
2023-02-19T17:50:44.749Z,3.83
2023-02-19T17:53:11.154Z,3.30
2023-02-19T17:55:37.516Z,3.58
2023-02-19T17:58:03.935Z,3.67
2023-02-19T18:00:32.150Z,4.35
2023-02-19T18:02:58.748Z,3.77
2023-02-19T18:05:25.110Z,5.22
2023-02-19T18:07:51.462Z,5.90
2023-02-19T18:10:20.120Z,4.30
2023-02-19T18:12:46.892Z,3.63
2023-02-19T18:15:22.551Z,4.60
2023-02-19T18:17:49.329Z,5.22
2023-02-19T18:20:17.867Z,9.38
2023-02-19T18:22:44.256Z,6.85
2023-02-19T18:25:11.243Z,6.00
2023-02-19T18:27:37.791Z,5.47
2023-02-19T18:30:05.653Z,5.22
2023-02-19T18:32:32.088Z,4.88
2023-02-19T18:35:00.149Z,4.95
2023-02-19T18:37:27.997Z,6.05
2023-02-19T18:39:54.393Z,5.80
2023-02-19T18:42:21.912Z,5.35
2023-02-19T18:44:49.223Z,5.13
2023-02-19T18:47:17.369Z,6.22
2023-02-19T18:49:51.491Z,6.15
2023-02-19T18:52:22.068Z,7.50
2023-02-19T18:54:49.309Z,5.53
2023-02-19T18:57:15.951Z,8.35
2023-02-19T18:59:43.237Z,7.43
2023-02-19T19:02:10.469Z,7.43
2023-02-19T19:04:38.236Z,6.80
2023-02-19T19:07:05.937Z,5.68
2023-02-19T19:09:33.134Z,7.68
2023-02-19T19:11:59.859Z,11.07
2023-02-19T19:14:26.218Z,8.45
2023-02-19T19:16:52.596Z,8.17
2023-02-19T19:19:19.680Z,7.57
2023-02-19T19:21:53.551Z,8.07
2023-02-19T19:24:22.140Z,8.38
2023-02-19T19:26:50.441Z,10.27
2023-02-19T19:29:19.628Z,9.53
2023-02-19T19:31:46.193Z,8.70
2023-02-19T19:34:13.359Z,9.43
2023-02-19T19:36:39.739Z,9.68
2023-02-19T19:39:06.692Z,8.93
2023-02-19T19:41:33.040Z,10.00
2023-02-19T19:44:05.393Z,8.65
2023-02-19T19:46:32.351Z,12.88
2023-02-19T19:48:58.830Z,8.88
2023-02-19T19:51:31.839Z,8.75
2023-02-19T19:53:58.362Z,10.43
2023-02-19T19:56:24.871Z,11.25
2023-02-19T19:58:51.231Z,11.27
2023-02-19T20:01:21.060Z,9.48
2023-02-19T20:03:48.008Z,12.55
2023-02-19T20:06:14.379Z,11.33
2023-02-19T20:08:41.021Z,9.25
2023-02-19T20:11:07.393Z,9.25
2023-02-19T20:13:34.422Z,10.80
2023-02-19T20:16:00.871Z,11.70
2023-02-19T20:18:27.439Z,9.37
2023-02-19T20:20:53.812Z,10.52
2023-02-19T20:23:20.178Z,10.15
2023-02-19T20:25:46.539Z,8.93
2023-02-19T20:28:12.893Z,7.90
2023-02-19T20:30:39.291Z,8.97
2023-02-19T20:33:05.665Z,9.45
2023-02-19T20:35:32.359Z,12.60
2023-02-19T20:37:58.761Z,10.73
2023-02-19T20:40:27.573Z,8.48
2023-02-19T20:42:54.323Z,7.33
2023-02-19T20:45:21.329Z,9.60
2023-02-19T20:47:47.979Z,9.98
2023-02-19T20:50:18.476Z,9.55
2023-02-19T20:52:45.934Z,10.75
2023-02-19T20:55:12.596Z,8.70
2023-02-19T20:57:39.125Z,7.53
2023-02-19T21:00:06.371Z,8.27
2023-02-19T21:02:32.765Z,10.07
2023-02-19T21:04:59.741Z,9.40
2023-02-19T21:07:26.677Z,7.70
2023-02-19T21:09:53.719Z,8.75
2023-02-19T21:12:22.110Z,10.57
2023-02-19T21:14:48.533Z,8.10
2023-02-19T21:17:15.199Z,8.50
2023-02-19T21:19:41.696Z,10.03
2023-02-19T21:22:08.139Z,8.73
2023-02-19T21:24:34.522Z,7.70
2023-02-19T21:27:01.106Z,9.30
2023-02-19T21:29:27.593Z,8.43
2023-02-19T21:31:56.159Z,8.47
2023-02-19T21:34:27.945Z,10.90
2023-02-19T21:36:55.523Z,8.95
2023-02-19T21:39:24.175Z,10.77
2023-02-19T21:41:50.771Z,9.98
2023-02-19T21:44:17.594Z,10.97
2023-02-19T21:46:44.265Z,9.48
2023-02-19T21:49:11.684Z,8.45
2023-02-19T21:51:40.438Z,10.95
2023-02-19T21:54:09.050Z,9.15
2023-02-19T21:56:36.654Z,9.07
2023-02-19T21:59:03.553Z,8.82
2023-02-19T22:01:33.278Z,11.57
2023-02-19T22:04:00.431Z,10.38
2023-02-19T22:06:30.625Z,9.80
2023-02-19T22:08:58.116Z,10.00
2023-02-19T22:11:25.142Z,8.10
2023-02-19T22:13:51.754Z,8.27
2023-02-19T22:16:18.359Z,12.05
2023-02-19T22:18:56.624Z,9.98
2023-02-19T22:21:25.611Z,8.33
2023-02-19T22:23:53.817Z,11.15
2023-02-19T22:26:25.584Z,7.70
2023-02-19T22:28:52.431Z,9.52
2023-02-19T22:31:21.445Z,10.82
2023-02-19T22:33:47.818Z,7.37
2023-02-19T22:36:23.064Z,8.43
2023-02-19T22:38:50.009Z,8.35
2023-02-19T22:41:17.740Z,8.88
2023-02-19T22:43:44.410Z,8.60
2023-02-19T22:46:13.866Z,8.37
2023-02-19T22:48:40.474Z,8.18
2023-02-19T22:51:15.025Z,8.18
2023-02-19T22:53:45.985Z,9.73
2023-02-19T22:56:13.966Z,10.23
2023-02-19T22:58:41.195Z,10.10
2023-02-19T23:01:08.708Z,7.88
2023-02-19T23:03:35.142Z,7.18
2023-02-19T23:06:04.823Z,8.88
2023-02-19T23:08:31.189Z,10.90
2023-02-19T23:10:57.553Z,8.57
2023-02-19T23:13:23.918Z,10.25
2023-02-19T23:15:50.282Z,12.50
2023-02-19T23:18:16.644Z,8.38
2023-02-19T23:20:43.049Z,10.05
2023-02-19T23:23:09.408Z,8.40
2023-02-19T23:25:35.821Z,9.15
2023-02-19T23:28:02.193Z,8.68
2023-02-19T23:30:28.636Z,9.50
2023-02-19T23:32:55.052Z,7.95
2023-02-19T23:35:21.396Z,8.73
2023-02-19T23:37:47.762Z,8.02
2023-02-19T23:40:14.333Z,8.88
2023-02-19T23:42:40.699Z,7.47
2023-02-19T23:45:07.398Z,7.85
2023-02-19T23:47:33.761Z,7.50
2023-02-19T23:50:00.153Z,8.27
2023-02-19T23:52:26.581Z,7.30
2023-02-19T23:54:52.918Z,7.15
2023-02-19T23:57:19.295Z,7.28
2023-02-19T23:59:47.172Z,8.10
